Turbeville, SC (29162)

2:01 AM EDT on August 04, 2015 (GMT -0400)
Gable | | Change Station
CLOSE
Current Station
Personal Weather Station
Location: Gable, SC
Elevation: 118 ft
Nearby Weather Stations

Elev 118 ft 33.81 °N, 80.13 °W | Updated 9 seconds ago

Partly Cloudy
Partly Cloudy
76.3 °F
Feels Like 76 °F
N
1.8
Wind Variable Wind from ESE
Gusts 2.5 mph

Today
High -- | Low -- °F
--% Chance of Precip.
Yesterday
High -- | Low -- °F
Precip. -- in
6:33 AM 8:18 PM
Waning Gibbous, 80% visible
Pressure 29.93 in
Visibility 7.0 miles
Clouds Scattered Clouds 9000 ft
Heat Index 76 °F
Dew Point 75 °F
Humidity 96%
Rainfall 0.00 in
Snow Depth Not available.
UV 0.0 out of 12
Pollen 3.70 out of 12
Air Quality Not available.
Flu Activity Not available.
METAR KCKI 040555Z AUTO 06003KT 7SM SCT090 25/25 A2993 RMK AO2 LTG DSNT E AND S P0003

More Conditions Fewer Conditions

Pressure 29.93 in
Visibility 7.0 miles
Clouds Scattered Clouds 9000 ft
Heat Index 76 °F
Dew Point 75 °F
Humidity 96%
Rainfall 0.00 in
Snow Depth Not available.
UV 0.0 out of 12
Pollen 3.70 out of 12
Air Quality Not available.
Flu Activity Not available.
METAR KCKI 040555Z AUTO 06003KT 7SM SCT090 25/25 A2993 RMK AO2 LTG DSNT E AND S P0003

More Conditions Fewer Conditions

10-Day Weather Forecast

×

Almanac

Astronomy

Aug. 04, 2015 Rise Set
Actual Time
Civil Twilight
Nautical Twilight
Astronomical Twilight
Moon
Length of Visible Light
Length of Day
Tomorrow will be .
, % of the Moon is Illuminated

Today's Extremes

State Highs State Lows

Community

WunderPhotos

Upload Photos

1,843,870 photos uploaded!

WunderBlogs® & News

Nearby

Air Quality

  Air Quality AQ Index Pollutant
Not available.

Snow Depth

Station Depth Elevation

Earthquake Activity

City Distance Mag. Time & Date
Minimum magnitude displayed is 2.5.

Coastal Water Temperatures

Place Temperature

Stations

Nearby Weather Stations

Station Location Temp. Windchill Dew Point Humidity Wind Precip. Elev Updated Type